sensor_id;sensor_type;location;lat;lon;timestamp;P1;durP1;ratioP1;P2;durP2;ratioP2
19804;SDS011;10062;51.052;13.756;2022-10-22T00:02:07;51.53;;;27.37;;
19804;SDS011;10062;51.052;13.756;2022-10-22T00:04:39;46.27;;;24.60;;
19804;SDS011;10062;51.052;13.756;2022-10-22T00:07:10;40.83;;;19.87;;
19804;SDS011;10062;51.052;13.756;2022-10-22T00:09:42;46.77;;;24.70;;
19804;SDS011;10062;51.052;13.756;2022-10-22T00:12:15;46.33;;;24.73;;
19804;SDS011;10062;51.052;13.756;2022-10-22T00:14:47;45.43;;;25.20;;
19804;SDS011;10062;51.052;13.756;2022-10-22T00:17:21;43.43;;;23.67;;
19804;SDS011;10062;51.052;13.756;2022-10-22T00:19:53;49.13;;;24.87;;
19804;SDS011;10062;51.052;13.756;2022-10-22T00:22:25;45.97;;;24.83;;
19804;SDS011;10062;51.052;13.756;2022-10-22T00:24:57;43.67;;;25.30;;
19804;SDS011;10062;51.052;13.756;2022-10-22T00:27:29;50.67;;;26.33;;
19804;SDS011;10062;51.052;13.756;2022-10-22T00:30:01;49.00;;;25.13;;
19804;SDS011;10062;51.052;13.756;2022-10-22T00:32:34;56.73;;;26.37;;
19804;SDS011;10062;51.052;13.756;2022-10-22T00:35:06;51.50;;;25.27;;
19804;SDS011;10062;51.052;13.756;2022-10-22T00:37:38;42.00;;;23.57;;
19804;SDS011;10062;51.052;13.756;2022-10-22T00:40:10;49.40;;;26.80;;
19804;SDS011;10062;51.052;13.756;2022-10-22T00:42:42;53.27;;;24.60;;
19804;SDS011;10062;51.052;13.756;2022-10-22T00:45:16;55.87;;;26.87;;
19804;SDS011;10062;51.052;13.756;2022-10-22T00:47:56;51.17;;;26.37;;
19804;SDS011;10062;51.052;13.756;2022-10-22T00:50:32;53.60;;;24.83;;
19804;SDS011;10062;51.052;13.756;2022-10-22T00:53:09;50.83;;;27.03;;
19804;SDS011;10062;51.052;13.756;2022-10-22T00:55:45;47.63;;;26.30;;
19804;SDS011;10062;51.052;13.756;2022-10-22T00:58:21;52.17;;;26.10;;
19804;SDS011;10062;51.052;13.756;2022-10-22T01:00:56;52.53;;;27.37;;
19804;SDS011;10062;51.052;13.756;2022-10-22T01:03:30;51.27;;;27.90;;
19804;SDS011;10062;51.052;13.756;2022-10-22T01:06:02;55.20;;;26.50;;
19804;SDS011;10062;51.052;13.756;2022-10-22T01:08:37;53.60;;;28.27;;
19804;SDS011;10062;51.052;13.756;2022-10-22T01:11:18;46.53;;;26.20;;
19804;SDS011;10062;51.052;13.756;2022-10-22T01:13:57;59.13;;;26.73;;
19804;SDS011;10062;51.052;13.756;2022-10-22T01:16:34;52.33;;;26.63;;
19804;SDS011;10062;51.052;13.756;2022-10-22T01:19:17;49.43;;;27.07;;
19804;SDS011;10062;51.052;13.756;2022-10-22T01:22:08;50.60;;;25.07;;
19804;SDS011;10062;51.052;13.756;2022-10-22T01:24:49;54.60;;;30.13;;
19804;SDS011;10062;51.052;13.756;2022-10-22T01:27:32;56.00;;;29.07;;
19804;SDS011;10062;51.052;13.756;2022-10-22T01:30:15;51.50;;;26.50;;
19804;SDS011;10062;51.052;13.756;2022-10-22T01:32:50;56.03;;;27.33;;
19804;SDS011;10062;51.052;13.756;2022-10-22T01:35:25;58.67;;;28.67;;
19804;SDS011;10062;51.052;13.756;2022-10-22T01:38:00;59.13;;;29.07;;
19804;SDS011;10062;51.052;13.756;2022-10-22T01:40:35;51.90;;;24.93;;
19804;SDS011;10062;51.052;13.756;2022-10-22T01:43:08;57.27;;;29.37;;
19804;SDS011;10062;51.052;13.756;2022-10-22T01:45:43;54.87;;;27.63;;
19804;SDS011;10062;51.052;13.756;2022-10-22T01:48:22;52.27;;;26.40;;
19804;SDS011;10062;51.052;13.756;2022-10-22T01:51:12;55.03;;;28.67;;
19804;SDS011;10062;51.052;13.756;2022-10-22T01:53:58;54.83;;;26.77;;
19804;SDS011;10062;51.052;13.756;2022-10-22T01:56:37;61.47;;;30.13;;
19804;SDS011;10062;51.052;13.756;2022-10-22T01:59:21;54.70;;;27.13;;
19804;SDS011;10062;51.052;13.756;2022-10-22T02:02:07;51.80;;;25.73;;
19804;SDS011;10062;51.052;13.756;2022-10-22T02:04:45;52.53;;;28.13;;
19804;SDS011;10062;51.052;13.756;2022-10-22T02:07:21;48.37;;;25.27;;
19804;SDS011;10062;51.052;13.756;2022-10-22T02:09:58;53.13;;;26.37;;
19804;SDS011;10062;51.052;13.756;2022-10-22T02:12:31;48.87;;;24.67;;
19804;SDS011;10062;51.052;13.756;2022-10-22T02:15:05;48.40;;;25.90;;
19804;SDS011;10062;51.052;13.756;2022-10-22T02:17:40;47.80;;;24.60;;
19804;SDS011;10062;51.052;13.756;2022-10-22T02:20:16;50.70;;;25.70;;
19804;SDS011;10062;51.052;13.756;2022-10-22T02:22:52;48.80;;;26.93;;
19804;SDS011;10062;51.052;13.756;2022-10-22T02:25:26;46.53;;;25.70;;
19804;SDS011;10062;51.052;13.756;2022-10-22T02:28:01;51.87;;;26.43;;
19804;SDS011;10062;51.052;13.756;2022-10-22T02:30:43;47.60;;;24.23;;
19804;SDS011;10062;51.052;13.756;2022-10-22T02:33:20;51.57;;;27.17;;
19804;SDS011;10062;51.052;13.756;2022-10-22T02:35:55;45.20;;;23.13;;
19804;SDS011;10062;51.052;13.756;2022-10-22T02:38:29;46.27;;;25.27;;
19804;SDS011;10062;51.052;13.756;2022-10-22T02:41:03;56.47;;;28.70;;
19804;SDS011;10062;51.052;13.756;2022-10-22T02:43:39;52.47;;;26.40;;
19804;SDS011;10062;51.052;13.756;2022-10-22T02:46:12;51.03;;;26.83;;
19804;SDS011;10062;51.052;13.756;2022-10-22T02:48:45;48.97;;;25.03;;
19804;SDS011;10062;51.052;13.756;2022-10-22T02:51:17;48.60;;;25.23;;
19804;SDS011;10062;51.052;13.756;2022-10-22T02:53:49;49.13;;;25.40;;
19804;SDS011;10062;51.052;13.756;2022-10-22T02:56:22;48.93;;;25.87;;
19804;SDS011;10062;51.052;13.756;2022-10-22T02:58:54;51.67;;;26.50;;
19804;SDS011;10062;51.052;13.756;2022-10-22T03:01:25;47.90;;;27.23;;
19804;SDS011;10062;51.052;13.756;2022-10-22T03:03:59;52.83;;;26.30;;
19804;SDS011;10062;51.052;13.756;2022-10-22T03:06:31;47.53;;;25.17;;
19804;SDS011;10062;51.052;13.756;2022-10-22T03:09:03;48.57;;;25.30;;
19804;SDS011;10062;51.052;13.756;2022-10-22T03:11:34;47.50;;;26.40;;
19804;SDS011;10062;51.052;13.756;2022-10-22T03:14:06;50.87;;;25.90;;
19804;SDS011;10062;51.052;13.756;2022-10-22T03:16:38;49.00;;;26.30;;
19804;SDS011;10062;51.052;13.756;2022-10-22T03:19:12;47.23;;;25.43;;
19804;SDS011;10062;51.052;13.756;2022-10-22T03:21:44;46.57;;;25.37;;
19804;SDS011;10062;51.052;13.756;2022-10-22T03:24:21;45.60;;;25.67;;
19804;SDS011;10062;51.052;13.756;2022-10-22T03:26:58;49.43;;;25.67;;
19804;SDS011;10062;51.052;13.756;2022-10-22T03:29:30;48.63;;;23.73;;
19804;SDS011;10062;51.052;13.756;2022-10-22T03:32:06;42.90;;;22.10;;
19804;SDS011;10062;51.052;13.756;2022-10-22T03:34:39;52.50;;;26.87;;
19804;SDS011;10062;51.052;13.756;2022-10-22T03:37:11;48.33;;;25.23;;
19804;SDS011;10062;51.052;13.756;2022-10-22T03:39:43;52.23;;;25.60;;
19804;SDS011;10062;51.052;13.756;2022-10-22T03:42:16;50.23;;;26.47;;
19804;SDS011;10062;51.052;13.756;2022-10-22T03:44:48;43.40;;;22.63;;
19804;SDS011;10062;51.052;13.756;2022-10-22T03:47:20;47.17;;;25.33;;
19804;SDS011;10062;51.052;13.756;2022-10-22T03:49:55;51.53;;;25.70;;
19804;SDS011;10062;51.052;13.756;2022-10-22T03:52:26;49.17;;;25.27;;
19804;SDS011;10062;51.052;13.756;2022-10-22T03:54:58;49.77;;;25.53;;
19804;SDS011;10062;51.052;13.756;2022-10-22T03:57:30;48.00;;;25.57;;
19804;SDS011;10062;51.052;13.756;2022-10-22T04:00:03;51.60;;;25.47;;
19804;SDS011;10062;51.052;13.756;2022-10-22T04:02:36;45.73;;;24.33;;
19804;SDS011;10062;51.052;13.756;2022-10-22T04:05:09;46.43;;;24.43;;
19804;SDS011;10062;51.052;13.756;2022-10-22T04:07:41;43.90;;;23.47;;
19804;SDS011;10062;51.052;13.756;2022-10-22T04:10:13;48.03;;;24.73;;
19804;SDS011;10062;51.052;13.756;2022-10-22T04:12:46;52.77;;;25.63;;
19804;SDS011;10062;51.052;13.756;2022-10-22T04:15:18;53.43;;;25.30;;
19804;SDS011;10062;51.052;13.756;2022-10-22T04:17:50;49.50;;;25.40;;
19804;SDS011;10062;51.052;13.756;2022-10-22T04:20:23;51.23;;;25.43;;
19804;SDS011;10062;51.052;13.756;2022-10-22T04:22:55;53.23;;;26.33;;
19804;SDS011;10062;51.052;13.756;2022-10-22T04:25:27;47.97;;;27.40;;
19804;SDS011;10062;51.052;13.756;2022-10-22T04:27:59;54.27;;;26.27;;
19804;SDS011;10062;51.052;13.756;2022-10-22T04:30:31;45.67;;;23.03;;
19804;SDS011;10062;51.052;13.756;2022-10-22T04:33:03;49.53;;;26.80;;
19804;SDS011;10062;51.052;13.756;2022-10-22T04:35:38;52.03;;;26.37;;
19804;SDS011;10062;51.052;13.756;2022-10-22T04:38:10;50.17;;;22.23;;
19804;SDS011;10062;51.052;13.756;2022-10-22T04:40:43;55.00;;;25.20;;
19804;SDS011;10062;51.052;13.756;2022-10-22T04:43:14;46.77;;;24.70;;
19804;SDS011;10062;51.052;13.756;2022-10-22T04:45:46;46.50;;;24.70;;
19804;SDS011;10062;51.052;13.756;2022-10-22T04:48:18;52.33;;;25.00;;
19804;SDS011;10062;51.052;13.756;2022-10-22T04:50:51;50.97;;;26.03;;
19804;SDS011;10062;51.052;13.756;2022-10-22T04:53:23;53.17;;;26.10;;
19804;SDS011;10062;51.052;13.756;2022-10-22T04:56:05;50.07;;;24.87;;
19804;SDS011;10062;51.052;13.756;2022-10-22T04:58:38;47.00;;;24.97;;
19804;SDS011;10062;51.052;13.756;2022-10-22T05:01:10;49.47;;;25.00;;
19804;SDS011;10062;51.052;13.756;2022-10-22T05:03:45;50.37;;;25.47;;
19804;SDS011;10062;51.052;13.756;2022-10-22T05:06:19;51.23;;;26.47;;
19804;SDS011;10062;51.052;13.756;2022-10-22T05:08:52;45.97;;;24.27;;
19804;SDS011;10062;51.052;13.756;2022-10-22T05:11:29;46.77;;;24.90;;
19804;SDS011;10062;51.052;13.756;2022-10-22T05:14:04;43.97;;;21.50;;
19804;SDS011;10062;51.052;13.756;2022-10-22T05:16:37;50.47;;;27.10;;
19804;SDS011;10062;51.052;13.756;2022-10-22T05:19:11;47.13;;;24.37;;
19804;SDS011;10062;51.052;13.756;2022-10-22T05:21:48;47.20;;;23.50;;
19804;SDS011;10062;51.052;13.756;2022-10-22T05:24:20;49.90;;;25.10;;
19804;SDS011;10062;51.052;13.756;2022-10-22T05:26:52;47.50;;;23.97;;
19804;SDS011;10062;51.052;13.756;2022-10-22T05:29:25;49.80;;;24.90;;
19804;SDS011;10062;51.052;13.756;2022-10-22T05:31:57;46.67;;;24.57;;
19804;SDS011;10062;51.052;13.756;2022-10-22T05:34:29;38.37;;;21.50;;
19804;SDS011;10062;51.052;13.756;2022-10-22T05:37:03;45.47;;;23.17;;
19804;SDS011;10062;51.052;13.756;2022-10-22T05:39:35;43.70;;;23.73;;
19804;SDS011;10062;51.052;13.756;2022-10-22T05:42:09;46.63;;;23.23;;
19804;SDS011;10062;51.052;13.756;2022-10-22T05:44:41;43.67;;;22.90;;
19804;SDS011;10062;51.052;13.756;2022-10-22T05:47:13;49.13;;;24.83;;
19804;SDS011;10062;51.052;13.756;2022-10-22T05:49:45;44.43;;;22.87;;
19804;SDS011;10062;51.052;13.756;2022-10-22T05:52:18;42.00;;;22.90;;
19804;SDS011;10062;51.052;13.756;2022-10-22T05:54:50;45.43;;;23.73;;
19804;SDS011;10062;51.052;13.756;2022-10-22T05:57:22;47.00;;;23.00;;
19804;SDS011;10062;51.052;13.756;2022-10-22T05:59:54;39.83;;;22.90;;
19804;SDS011;10062;51.052;13.756;2022-10-22T06:02:26;43.87;;;21.70;;
19804;SDS011;10062;51.052;13.756;2022-10-22T06:04:58;44.53;;;23.67;;
19804;SDS011;10062;51.052;13.756;2022-10-22T06:07:31;44.10;;;23.17;;
19804;SDS011;10062;51.052;13.756;2022-10-22T06:10:04;45.57;;;23.37;;
19804;SDS011;10062;51.052;13.756;2022-10-22T06:12:36;41.60;;;20.90;;
19804;SDS011;10062;51.052;13.756;2022-10-22T06:15:08;49.60;;;23.23;;
19804;SDS011;10062;51.052;13.756;2022-10-22T06:17:42;40.27;;;22.07;;
19804;SDS011;10062;51.052;13.756;2022-10-22T06:20:14;39.20;;;22.17;;
19804;SDS011;10062;51.052;13.756;2022-10-22T06:22:47;38.73;;;22.17;;
19804;SDS011;10062;51.052;13.756;2022-10-22T06:25:19;43.50;;;20.83;;
19804;SDS011;10062;51.052;13.756;2022-10-22T06:27:51;38.27;;;22.03;;
19804;SDS011;10062;51.052;13.756;2022-10-22T06:30:23;39.30;;;21.63;;
19804;SDS011;10062;51.052;13.756;2022-10-22T06:32:55;35.67;;;21.57;;
19804;SDS011;10062;51.052;13.756;2022-10-22T06:35:26;44.67;;;23.07;;
19804;SDS011;10062;51.052;13.756;2022-10-22T06:38:00;42.27;;;22.67;;
19804;SDS011;10062;51.052;13.756;2022-10-22T06:40:31;42.83;;;21.57;;
19804;SDS011;10062;51.052;13.756;2022-10-22T06:43:03;39.40;;;22.87;;
19804;SDS011;10062;51.052;13.756;2022-10-22T06:45:35;37.57;;;19.27;;
19804;SDS011;10062;51.052;13.756;2022-10-22T06:48:07;40.10;;;21.53;;
19804;SDS011;10062;51.052;13.756;2022-10-22T06:50:39;39.60;;;21.80;;
19804;SDS011;10062;51.052;13.756;2022-10-22T06:53:12;43.47;;;20.87;;
19804;SDS011;10062;51.052;13.756;2022-10-22T06:55:44;40.43;;;20.33;;
19804;SDS011;10062;51.052;13.756;2022-10-22T06:58:15;38.83;;;21.53;;
19804;SDS011;10062;51.052;13.756;2022-10-22T07:00:47;38.90;;;21.60;;
19804;SDS011;10062;51.052;13.756;2022-10-22T07:03:19;47.20;;;21.87;;
19804;SDS011;10062;51.052;13.756;2022-10-22T07:05:51;41.97;;;22.50;;
19804;SDS011;10062;51.052;13.756;2022-10-22T07:08:24;38.87;;;21.63;;
19804;SDS011;10062;51.052;13.756;2022-10-22T07:10:56;44.97;;;22.50;;
19804;SDS011;10062;51.052;13.756;2022-10-22T07:13:35;38.00;;;21.30;;
19804;SDS011;10062;51.052;13.756;2022-10-22T07:16:07;33.40;;;19.40;;
19804;SDS011;10062;51.052;13.756;2022-10-22T07:18:40;37.37;;;21.30;;
19804;SDS011;10062;51.052;13.756;2022-10-22T07:21:12;40.70;;;21.60;;
19804;SDS011;10062;51.052;13.756;2022-10-22T07:23:47;37.50;;;18.97;;
19804;SDS011;10062;51.052;13.756;2022-10-22T07:26:19;39.17;;;19.07;;
19804;SDS011;10062;51.052;13.756;2022-10-22T07:28:51;41.60;;;22.33;;
19804;SDS011;10062;51.052;13.756;2022-10-22T07:31:23;41.83;;;19.80;;
19804;SDS011;10062;51.052;13.756;2022-10-22T07:33:54;39.40;;;21.30;;
19804;SDS011;10062;51.052;13.756;2022-10-22T07:36:26;41.40;;;22.03;;
19804;SDS011;10062;51.052;13.756;2022-10-22T07:39:00;48.00;;;23.00;;
19804;SDS011;10062;51.052;13.756;2022-10-22T07:41:32;37.93;;;19.33;;
19804;SDS011;10062;51.052;13.756;2022-10-22T07:44:03;40.93;;;22.10;;
19804;SDS011;10062;51.052;13.756;2022-10-22T07:46:35;42.30;;;23.17;;
19804;SDS011;10062;51.052;13.756;2022-10-22T07:49:07;41.97;;;23.27;;
19804;SDS011;10062;51.052;13.756;2022-10-22T07:51:39;40.93;;;22.03;;
19804;SDS011;10062;51.052;13.756;2022-10-22T07:54:12;46.93;;;24.47;;
19804;SDS011;10062;51.052;13.756;2022-10-22T07:56:44;42.40;;;23.50;;
19804;SDS011;10062;51.052;13.756;2022-10-22T07:59:15;37.43;;;21.00;;
19804;SDS011;10062;51.052;13.756;2022-10-22T08:01:47;47.07;;;23.43;;
19804;SDS011;10062;51.052;13.756;2022-10-22T08:04:19;41.30;;;23.83;;
19804;SDS011;10062;51.052;13.756;2022-10-22T08:06:51;44.13;;;23.03;;
19804;SDS011;10062;51.052;13.756;2022-10-22T08:09:24;43.17;;;24.13;;
19804;SDS011;10062;51.052;13.756;2022-10-22T08:11:56;44.97;;;24.23;;
19804;SDS011;10062;51.052;13.756;2022-10-22T08:14:27;47.00;;;24.70;;
19804;SDS011;10062;51.052;13.756;2022-10-22T08:17:00;44.80;;;23.53;;
19804;SDS011;10062;51.052;13.756;2022-10-22T08:19:32;46.73;;;25.00;;
19804;SDS011;10062;51.052;13.756;2022-10-22T08:22:04;43.00;;;23.07;;
19804;SDS011;10062;51.052;13.756;2022-10-22T08:24:37;37.73;;;22.73;;
19804;SDS011;10062;51.052;13.756;2022-10-22T08:27:09;41.83;;;22.40;;
19804;SDS011;10062;51.052;13.756;2022-10-22T08:29:41;39.73;;;21.60;;
19804;SDS011;10062;51.052;13.756;2022-10-22T08:32:13;38.47;;;21.90;;
19804;SDS011;10062;51.052;13.756;2022-10-22T08:34:44;36.13;;;21.47;;
19804;SDS011;10062;51.052;13.756;2022-10-22T08:37:16;41.33;;;21.23;;
19804;SDS011;10062;51.052;13.756;2022-10-22T08:39:49;47.83;;;22.50;;
19804;SDS011;10062;51.052;13.756;2022-10-22T08:45:10;39.43;;;22.83;;
19804;SDS011;10062;51.052;13.756;2022-10-22T08:47:47;37.60;;;21.17;;
19804;SDS011;10062;51.052;13.756;2022-10-22T08:50:33;37.53;;;20.60;;
19804;SDS011;10062;51.052;13.756;2022-10-22T08:53:10;36.47;;;20.93;;
19804;SDS011;10062;51.052;13.756;2022-10-22T08:55:45;36.50;;;19.53;;
19804;SDS011;10062;51.052;13.756;2022-10-22T08:58:20;38.57;;;19.87;;
19804;SDS011;10062;51.052;13.756;2022-10-22T09:00:59;34.87;;;19.83;;
19804;SDS011;10062;51.052;13.756;2022-10-22T09:03:35;35.57;;;19.63;;
19804;SDS011;10062;51.052;13.756;2022-10-22T09:06:13;34.80;;;18.47;;
19804;SDS011;10062;51.052;13.756;2022-10-22T09:08:48;33.43;;;17.67;;
19804;SDS011;10062;51.052;13.756;2022-10-22T09:11:24;27.93;;;18.17;;
19804;SDS011;10062;51.052;13.756;2022-10-22T09:13:58;30.77;;;18.23;;
19804;SDS011;10062;51.052;13.756;2022-10-22T09:16:33;31.60;;;17.57;;
19804;SDS011;10062;51.052;13.756;2022-10-22T09:19:11;33.97;;;18.33;;
19804;SDS011;10062;51.052;13.756;2022-10-22T09:21:50;28.37;;;17.13;;
19804;SDS011;10062;51.052;13.756;2022-10-22T09:24:31;28.57;;;17.47;;
19804;SDS011;10062;51.052;13.756;2022-10-22T09:27:10;30.67;;;17.07;;
19804;SDS011;10062;51.052;13.756;2022-10-22T09:29:45;31.47;;;17.57;;
19804;SDS011;10062;51.052;13.756;2022-10-22T09:32:18;31.50;;;18.90;;
19804;SDS011;10062;51.052;13.756;2022-10-22T09:34:53;29.13;;;18.23;;
19804;SDS011;10062;51.052;13.756;2022-10-22T09:37:27;30.80;;;19.67;;
19804;SDS011;10062;51.052;13.756;2022-10-22T09:40:02;32.00;;;17.63;;
19804;SDS011;10062;51.052;13.756;2022-10-22T09:42:37;28.47;;;17.13;;
19804;SDS011;10062;51.052;13.756;2022-10-22T09:45:14;27.63;;;17.83;;
19804;SDS011;10062;51.052;13.756;2022-10-22T09:47:48;25.63;;;15.47;;
19804;SDS011;10062;51.052;13.756;2022-10-22T09:50:24;23.97;;;15.50;;
19804;SDS011;10062;51.052;13.756;2022-10-22T09:52:59;24.33;;;15.03;;
19804;SDS011;10062;51.052;13.756;2022-10-22T09:55:36;20.87;;;14.10;;
19804;SDS011;10062;51.052;13.756;2022-10-22T09:58:12;19.83;;;12.20;;
19804;SDS011;10062;51.052;13.756;2022-10-22T10:00:45;21.17;;;12.67;;
19804;SDS011;10062;51.052;13.756;2022-10-22T10:03:21;18.93;;;11.87;;
19804;SDS011;10062;51.052;13.756;2022-10-22T10:05:56;16.83;;;12.27;;
19804;SDS011;10062;51.052;13.756;2022-10-22T10:08:29;17.70;;;11.47;;
19804;SDS011;10062;51.052;13.756;2022-10-22T10:11:02;16.93;;;11.70;;
19804;SDS011;10062;51.052;13.756;2022-10-22T10:13:48;16.00;;;11.27;;
19804;SDS011;10062;51.052;13.756;2022-10-22T10:16:31;16.27;;;11.63;;
19804;SDS011;10062;51.052;13.756;2022-10-22T10:22:13;14.83;;;9.40;;
19804;SDS011;10062;51.052;13.756;2022-10-22T10:25:02;11.27;;;8.70;;
19804;SDS011;10062;51.052;13.756;2022-10-22T10:27:55;12.87;;;8.63;;
19804;SDS011;10062;51.052;13.756;2022-10-22T10:30:37;13.20;;;8.50;;
19804;SDS011;10062;51.052;13.756;2022-10-22T10:33:19;13.67;;;9.03;;
19804;SDS011;10062;51.052;13.756;2022-10-22T10:36:01;13.60;;;7.90;;
19804;SDS011;10062;51.052;13.756;2022-10-22T10:38:44;11.43;;;8.07;;
19804;SDS011;10062;51.052;13.756;2022-10-22T10:41:27;13.90;;;9.07;;
19804;SDS011;10062;51.052;13.756;2022-10-22T10:44:13;11.20;;;8.00;;
19804;SDS011;10062;51.052;13.756;2022-10-22T10:46:56;9.07;;;6.87;;
19804;SDS011;10062;51.052;13.756;2022-10-22T10:49:35;11.80;;;7.53;;
19804;SDS011;10062;51.052;13.756;2022-10-22T10:52:09;10.17;;;6.67;;
19804;SDS011;10062;51.052;13.756;2022-10-22T10:54:49;8.53;;;6.60;;
19804;SDS011;10062;51.052;13.756;2022-10-22T10:57:33;10.60;;;6.57;;
19804;SDS011;10062;51.052;13.756;2022-10-22T11:00:09;10.00;;;5.83;;
19804;SDS011;10062;51.052;13.756;2022-10-22T11:05:56;14.57;;;10.13;;
19804;SDS011;10062;51.052;13.756;2022-10-22T11:08:29;9.90;;;7.67;;
19804;SDS011;10062;51.052;13.756;2022-10-22T11:11:04;9.17;;;6.17;;
19804;SDS011;10062;51.052;13.756;2022-10-22T11:13:42;29.23;;;19.80;;
19804;SDS011;10062;51.052;13.756;2022-10-22T11:16:20;22.27;;;16.03;;
19804;SDS011;10062;51.052;13.756;2022-10-22T11:18:58;40.10;;;27.57;;
19804;SDS011;10062;51.052;13.756;2022-10-22T11:21:35;27.47;;;18.23;;
19804;SDS011;10062;51.052;13.756;2022-10-22T11:24:14;13.17;;;8.70;;
19804;SDS011;10062;51.052;13.756;2022-10-22T11:26:53;10.00;;;6.53;;
19804;SDS011;10062;51.052;13.756;2022-10-22T11:29:29;23.23;;;15.67;;
19804;SDS011;10062;51.052;13.756;2022-10-22T11:32:09;10.97;;;7.50;;
19804;SDS011;10062;51.052;13.756;2022-10-22T11:34:46;9.97;;;6.50;;
19804;SDS011;10062;51.052;13.756;2022-10-22T11:37:22;11.23;;;6.60;;
19804;SDS011;10062;51.052;13.756;2022-10-22T11:39:56;11.53;;;6.63;;
19804;SDS011;10062;51.052;13.756;2022-10-22T11:42:32;11.47;;;6.90;;
19804;SDS011;10062;51.052;13.756;2022-10-22T11:45:06;9.33;;;5.57;;
19804;SDS011;10062;51.052;13.756;2022-10-22T11:48:04;9.13;;;6.73;;
19804;SDS011;10062;51.052;13.756;2022-10-22T11:50:45;9.20;;;6.67;;
19804;SDS011;10062;51.052;13.756;2022-10-22T11:53:29;10.70;;;6.77;;
19804;SDS011;10062;51.052;13.756;2022-10-22T11:56:03;45.97;;;29.03;;
19804;SDS011;10062;51.052;13.756;2022-10-22T11:58:53;12.50;;;7.03;;
19804;SDS011;10062;51.052;13.756;2022-10-22T12:01:26;9.67;;;6.40;;
19804;SDS011;10062;51.052;13.756;2022-10-22T12:06:53;10.53;;;6.40;;
19804;SDS011;10062;51.052;13.756;2022-10-22T12:09:28;11.00;;;6.27;;
19804;SDS011;10062;51.052;13.756;2022-10-22T12:12:08;9.63;;;6.30;;
19804;SDS011;10062;51.052;13.756;2022-10-22T12:14:50;11.20;;;6.93;;
19804;SDS011;10062;51.052;13.756;2022-10-22T12:17:24;9.00;;;5.93;;
19804;SDS011;10062;51.052;13.756;2022-10-22T12:19:58;11.70;;;6.17;;
19804;SDS011;10062;51.052;13.756;2022-10-22T12:22:34;11.20;;;6.17;;
19804;SDS011;10062;51.052;13.756;2022-10-22T12:25:14;9.33;;;5.83;;
19804;SDS011;10062;51.052;13.756;2022-10-22T12:27:49;12.87;;;7.10;;
19804;SDS011;10062;51.052;13.756;2022-10-22T12:30:23;9.50;;;6.40;;
19804;SDS011;10062;51.052;13.756;2022-10-22T12:32:56;9.70;;;6.43;;
19804;SDS011;10062;51.052;13.756;2022-10-22T12:35:31;14.50;;;9.20;;
19804;SDS011;10062;51.052;13.756;2022-10-22T12:38:07;22.50;;;16.13;;
19804;SDS011;10062;51.052;13.756;2022-10-22T12:40:45;14.63;;;9.10;;
19804;SDS011;10062;51.052;13.756;2022-10-22T12:43:23;15.33;;;6.13;;
19804;SDS011;10062;51.052;13.756;2022-10-22T12:45:57;9.80;;;5.63;;
19804;SDS011;10062;51.052;13.756;2022-10-22T12:48:31;7.30;;;5.43;;
19804;SDS011;10062;51.052;13.756;2022-10-22T12:51:07;9.27;;;5.47;;
19804;SDS011;10062;51.052;13.756;2022-10-22T12:53:45;10.57;;;5.10;;
19804;SDS011;10062;51.052;13.756;2022-10-22T12:56:21;9.43;;;5.37;;
19804;SDS011;10062;51.052;13.756;2022-10-22T12:58:56;7.77;;;5.40;;
19804;SDS011;10062;51.052;13.756;2022-10-22T13:01:31;8.70;;;5.20;;
19804;SDS011;10062;51.052;13.756;2022-10-22T13:04:17;9.63;;;4.53;;
19804;SDS011;10062;51.052;13.756;2022-10-22T13:06:51;8.43;;;5.10;;
19804;SDS011;10062;51.052;13.756;2022-10-22T13:09:38;14.30;;;9.23;;
19804;SDS011;10062;51.052;13.756;2022-10-22T13:12:12;7.70;;;5.37;;
19804;SDS011;10062;51.052;13.756;2022-10-22T13:14:47;7.53;;;4.80;;
19804;SDS011;10062;51.052;13.756;2022-10-22T13:17:19;8.77;;;5.80;;
19804;SDS011;10062;51.052;13.756;2022-10-22T13:20:14;11.90;;;5.17;;
19804;SDS011;10062;51.052;13.756;2022-10-22T13:22:51;7.90;;;4.50;;
19804;SDS011;10062;51.052;13.756;2022-10-22T13:25:25;7.00;;;4.23;;
19804;SDS011;10062;51.052;13.756;2022-10-22T13:28:01;6.80;;;3.90;;
19804;SDS011;10062;51.052;13.756;2022-10-22T13:30:50;5.03;;;2.47;;
19804;SDS011;10062;51.052;13.756;2022-10-22T13:33:23;2.23;;;1.20;;
19804;SDS011;10062;51.052;13.756;2022-10-22T13:35:59;4.10;;;1.00;;
19804;SDS011;10062;51.052;13.756;2022-10-22T13:38:31;2.03;;;0.80;;
19804;SDS011;10062;51.052;13.756;2022-10-22T13:41:03;1.73;;;0.87;;
19804;SDS011;10062;51.052;13.756;2022-10-22T13:43:37;1.27;;;0.83;;
19804;SDS011;10062;51.052;13.756;2022-10-22T13:46:08;1.37;;;0.70;;
19804;SDS011;10062;51.052;13.756;2022-10-22T13:48:41;2.30;;;0.80;;
19804;SDS011;10062;51.052;13.756;2022-10-22T13:51:14;1.63;;;0.80;;
19804;SDS011;10062;51.052;13.756;2022-10-22T13:53:47;2.30;;;0.90;;
19804;SDS011;10062;51.052;13.756;2022-10-22T13:56:21;4.90;;;1.27;;
19804;SDS011;10062;51.052;13.756;2022-10-22T13:58:54;2.30;;;0.83;;
19804;SDS011;10062;51.052;13.756;2022-10-22T14:01:26;2.73;;;0.70;;
19804;SDS011;10062;51.052;13.756;2022-10-22T14:03:58;7.30;;;3.70;;
19804;SDS011;10062;51.052;13.756;2022-10-22T14:06:32;6.07;;;2.27;;
19804;SDS011;10062;51.052;13.756;2022-10-22T14:09:05;27.47;;;17.80;;
19804;SDS011;10062;51.052;13.756;2022-10-22T14:11:38;12.77;;;8.23;;
19804;SDS011;10062;51.052;13.756;2022-10-22T14:14:11;41.50;;;23.83;;
19804;SDS011;10062;51.052;13.756;2022-10-22T14:16:46;7.40;;;3.77;;
19804;SDS011;10062;51.052;13.756;2022-10-22T14:19:18;1.80;;;0.60;;
19804;SDS011;10062;51.052;13.756;2022-10-22T14:21:49;7.00;;;3.60;;
19804;SDS011;10062;51.052;13.756;2022-10-22T14:24:21;4.03;;;1.50;;
19804;SDS011;10062;51.052;13.756;2022-10-22T14:26:53;3.67;;;1.00;;
19804;SDS011;10062;51.052;13.756;2022-10-22T14:29:26;3.20;;;0.90;;
19804;SDS011;10062;51.052;13.756;2022-10-22T14:31:58;1.33;;;0.63;;
19804;SDS011;10062;51.052;13.756;2022-10-22T14:34:29;2.83;;;1.10;;
19804;SDS011;10062;51.052;13.756;2022-10-22T14:37:01;1.63;;;0.70;;
19804;SDS011;10062;51.052;13.756;2022-10-22T14:39:33;2.00;;;0.97;;
19804;SDS011;10062;51.052;13.756;2022-10-22T14:42:07;1.53;;;0.90;;
19804;SDS011;10062;51.052;13.756;2022-10-22T14:44:42;2.40;;;0.63;;
19804;SDS011;10062;51.052;13.756;2022-10-22T14:47:14;1.87;;;0.90;;
19804;SDS011;10062;51.052;13.756;2022-10-22T14:49:45;2.30;;;0.80;;
19804;SDS011;10062;51.052;13.756;2022-10-22T14:52:17;13.00;;;9.40;;
19804;SDS011;10062;51.052;13.756;2022-10-22T14:54:49;24.43;;;14.67;;
19804;SDS011;10062;51.052;13.756;2022-10-22T14:57:22;11.80;;;6.87;;
19804;SDS011;10062;51.052;13.756;2022-10-22T14:59:56;5.37;;;2.87;;
19804;SDS011;10062;51.052;13.756;2022-10-22T15:02:28;2.63;;;0.90;;
19804;SDS011;10062;51.052;13.756;2022-10-22T15:04:59;2.53;;;1.00;;
19804;SDS011;10062;51.052;13.756;2022-10-22T15:07:31;2.30;;;1.37;;
19804;SDS011;10062;51.052;13.756;2022-10-22T15:10:03;3.77;;;1.20;;